Time;durP1;ratioP1;P1;durP2;ratioP2;P2;SDS_P1;SDS_P2;PMS_P1;PMS_P2;Temp;Humidity;BMP_temperature;BMP_pressure;BME280_temperature;BME280_humidity;BME280_pressure;Samples;Min_cycle;Max_cycle;Signal;HPM_P1;HPM_P2
2021/06/03 14:26:50;;;;;;;5.28;0.80;;;;;;;24.55;45.64;101242.73;2048420;69;27776;-61
2021/06/03 14:29:18;;;;;;;2.50;1.15;;;;;;;24.57;45.25;101247.02;2005422;70;21078;-64
2021/06/03 14:31:52;;;;;;;2.67;0.95;;;;;;;24.64;44.87;101254.89;1974961;72;21372;-64
2021/06/03 14:34:29;;;;;;;2.75;0.90;;;;;;;24.72;44.56;101269.00;1972736;72;21096;-61
2021/06/03 14:37:05;;;;;;;1.45;0.80;;;;;;;24.78;44.33;101259.52;1970852;72;21175;-63
2021/06/03 14:39:53;;;;;;;4.05;0.90;;;;;;;24.83;44.25;101262.64;1970515;72;21039;-61
2021/06/03 14:42:27;;;;;;;6.17;1.47;;;;;;;24.86;44.12;101267.73;1971528;72;21031;-62
2021/06/03 14:44:58;;;;;;;5.35;1.10;;;;;;;24.89;44.09;101266.11;1985991;72;21063;-59
2021/06/03 14:47:27;;;;;;;3.27;0.93;;;;;;;24.90;44.04;101267.83;1970351;72;21059;-57
2021/06/03 14:49:55;;;;;;;1.30;0.88;;;;;;;24.93;44.15;101281.00;1973392;72;21059;-59
2021/06/03 14:52:28;;;;;;;3.02;0.80;;;;;;;24.95;44.21;101281.70;1970406;72;21058;-59
2021/06/03 14:54:57;;;;;;;1.27;0.80;;;;;;;24.96;44.28;101283.42;1967463;72;21054;-62
2021/06/03 14:57:25;;;;;;;1.45;0.90;;;;;;;24.97;44.28;101282.44;1985764;72;21172;-64
2021/06/03 14:59:54;;;;;;;2.33;1.05;;;;;;;24.98;44.12;101288.16;1973536;71;21118;-68
2021/06/03 15:02:22;;;;;;;2.85;1.10;;;;;;;24.98;44.12;101276.05;1967724;72;21054;-63
2021/06/03 15:04:50;;;;;;;2.75;0.68;;;;;;;24.99;44.07;101281.80;1968588;72;21123;-62
2021/06/03 15:07:20;;;;;;;1.90;0.65;;;;;;;24.99;43.96;101272.38;1966668;72;21108;-61
2021/06/03 15:09:49;;;;;;;1.65;0.70;;;;;;;24.99;43.84;101281.80;1978175;71;21090;-62
2021/06/03 15:12:21;;;;;;;2.75;0.98;;;;;;;24.99;43.68;101267.45;1978840;72;21121;-62
2021/06/03 15:14:50;;;;;;;3.40;0.72;;;;;;;24.97;43.61;101266.75;1979986;72;21113;-62
2021/06/03 15:17:19;;;;;;;2.65;0.70;;;;;;;24.95;43.45;101261.50;1967680;72;21399;-61
2021/06/03 15:19:51;;;;;;;2.00;0.70;;;;;;;24.93;43.33;101266.18;1973321;72;21113;-60
2021/06/03 15:22:17;;;;;;;2.87;0.60;;;;;;;24.91;43.28;101265.98;1972953;72;21047;-60
2021/06/03 15:24:46;;;;;;;2.85;0.70;;;;;;;24.89;43.23;101274.70;1971891;72;21094;-59
2021/06/03 15:27:15;;;;;;;5.17;1.00;;;;;;;24.87;43.17;101277.53;1969280;72;21041;-59
2021/06/03 15:29:44;;;;;;;2.60;0.85;;;;;;;24.86;43.16;101270.42;1970110;71;21131;-60
2021/06/03 15:32:13;;;;;;;2.33;0.80;;;;;;;24.84;43.25;101271.06;1974632;72;21054;-57
2021/06/03 15:34:41;;;;;;;3.85;0.90;;;;;;;24.83;43.22;101278.80;1988236;72;21023;-58
2021/06/03 15:37:11;;;;;;;1.92;0.90;;;;;;;24.82;43.30;101275.23;1973085;73;21180;-58
2021/06/03 15:39:40;;;;;;;1.98;0.80;;;;;;;24.81;43.38;101276.25;1968823;72;21152;-59
2021/06/03 15:42:10;;;;;;;2.00;0.80;;;;;;;24.81;43.38;101284.83;1963417;72;21018;-58
2021/06/03 15:44:39;;;;;;;1.50;1.07;;;;;;;24.80;43.42;101292.53;1975288;72;21031;-59
2021/06/03 15:47:08;;;;;;;3.35;0.90;;;;;;;24.80;43.44;101287.99;1969750;72;21051;-60
2021/06/03 15:49:36;;;;;;;3.85;1.00;;;;;;;24.80;43.46;101293.88;1970063;72;21052;-59
2021/06/03 15:52:05;;;;;;;1.45;0.90;;;;;;;24.79;43.47;101301.63;1973099;72;21035;-59
2021/06/03 15:54:36;;;;;;;1.80;0.75;;;;;;;24.77;43.52;101296.84;1973157;72;21044;-59
2021/06/03 15:57:06;;;;;;;0.93;0.60;;;;;;;24.77;43.55;101300.89;1972951;72;21067;-58
2021/06/03 15:59:35;;;;;;;3.58;0.80;;;;;;;24.76;43.58;101301.89;1966659;72;21086;-58
2021/06/03 16:02:05;;;;;;;2.72;0.75;;;;;;;24.75;43.61;101306.44;1978630;72;21031;-59
2021/06/03 16:04:34;;;;;;;1.60;0.80;;;;;;;24.74;43.63;101306.06;1965818;72;21098;-60
2021/06/03 16:07:02;;;;;;;2.98;0.90;;;;;;;24.74;43.65;101303.88;1978514;72;21061;-57
2021/06/03 16:09:31;;;;;;;2.75;0.90;;;;;;;24.73;43.72;101300.81;1930664;73;21053;-58
2021/06/03 16:12:00;;;;;;;2.67;1.00;;;;;;;24.72;43.75;101305.86;1952965;73;21086;-58
2021/06/03 16:14:28;;;;;;;3.77;0.90;;;;;;;24.71;43.74;101296.91;1925285;73;21011;-58
2021/06/03 16:16:57;;;;;;;3.37;1.00;;;;;;;24.70;43.73;101300.61;1915877;74;21051;-58
2021/06/03 16:19:25;;;;;;;3.25;0.70;;;;;;;24.70;43.74;101295.22;1937839;73;21058;-58
2021/06/03 16:21:54;;;;;;;2.85;0.70;;;;;;;24.70;43.75;101286.27;1949994;73;21145;-61
2021/06/03 16:24:22;;;;;;;0.95;0.70;;;;;;;24.69;43.74;101289.47;1943692;73;21090;-61
2021/06/03 16:26:51;;;;;;;1.27;0.93;;;;;;;24.69;43.80;101284.08;1976473;72;21108;-60
2021/06/03 16:29:19;;;;;;;3.05;0.90;;;;;;;24.70;43.84;101280.89;1972889;72;21097;-63
2021/06/03 16:31:47;;;;;;;1.60;0.90;;;;;;;24.70;44.06;101281.76;1913471;74;21555;-62
2021/06/03 16:34:16;;;;;;;2.60;1.05;;;;;;;24.70;44.10;101283.58;1921967;74;21059;-62
2021/06/03 16:36:45;;;;;;;5.95;0.70;;;;;;;24.71;44.14;101279.91;1922745;74;21127;-60
2021/06/03 16:39:13;;;;;;;1.80;0.70;;;;;;;24.72;44.22;101277.59;1914088;74;21152;-61
2021/06/03 16:41:41;;;;;;;3.80;0.80;;;;;;;24.74;44.25;101279.64;1927299;74;21139;-60
2021/06/03 16:44:09;;;;;;;2.08;0.72;;;;;;;24.74;44.23;101269.71;1923868;74;21048;-61
2021/06/03 16:46:38;;;;;;;2.15;0.80;;;;;;;24.75;44.37;101270.55;1926095;74;21612;-58
2021/06/03 16:49:06;;;;;;;4.62;1.05;;;;;;;24.77;44.41;101280.69;1925873;74;21067;-60
2021/06/03 16:51:35;;;;;;;1.70;0.60;;;;;;;24.81;44.46;101281.63;1933727;72;21062;-60
2021/06/03 16:54:04;;;;;;;2.15;0.62;;;;;;;24.84;44.54;101277.80;1960689;72;21049;-60
2021/06/03 16:56:34;;;;;;;3.00;0.68;;;;;;;24.90;44.53;101285.34;1970376;72;21428;-57
2021/06/03 16:59:03;;;;;;;3.30;0.70;;;;;;;24.94;44.42;101284.06;1954910;72;21118;-58
2021/06/03 17:01:33;;;;;;;1.62;0.70;;;;;;;24.98;44.55;101278.73;1949223;73;21133;-62
2021/06/03 17:04:02;;;;;;;3.42;0.82;;;;;;;25.04;44.47;101280.02;1908071;73;21142;-59
2021/06/03 17:06:35;;;;;;;6.85;1.05;;;;;;;25.09;44.45;101286.34;1935079;73;21164;-59
2021/06/03 17:09:02;;;;;;;4.67;0.95;;;;;;;25.11;44.48;101284.35;1943569;73;21652;-59
2021/06/03 17:11:30;;;;;;;2.87;0.65;;;;;;;25.13;44.39;101282.36;1940709;73;21177;-58
2021/06/03 17:13:59;;;;;;;3.40;0.75;;;;;;;25.14;44.40;101287.62;1940572;74;21044;-58
2021/06/03 17:16:27;;;;;;;2.77;0.60;;;;;;;25.16;44.36;101288.33;1943599;73;21082;-59
2021/06/03 17:18:55;;;;;;;1.87;0.70;;;;;;;25.18;44.42;101289.03;1943518;73;21050;-58
2021/06/03 17:21:24;;;;;;;1.92;0.60;;;;;;;25.19;44.28;101285.83;1937100;73;21478;-55
2021/06/03 17:23:52;;;;;;;3.87;0.70;;;;;;;25.20;44.18;101282.16;1942744;72;21047;-57
2021/06/03 17:26:24;;;;;;;3.50;0.72;;;;;;;25.22;44.18;101290.95;1929818;73;21066;-60
2021/06/03 17:28:53;;;;;;;1.52;0.70;;;;;;;25.24;44.33;101287.64;1922669;73;21636;-60
2021/06/03 17:31:21;;;;;;;2.47;0.60;;;;;;;25.24;44.33;101279.55;1910394;75;21449;-61
2021/06/03 17:33:49;;;;;;;6.33;0.75;;;;;;;25.26;44.30;101288.34;1906254;75;21191;-56
2021/06/03 17:36:17;;;;;;;1.05;0.70;;;;;;;25.28;44.27;101289.05;1932898;74;21056;-56
2021/06/03 17:38:46;;;;;;;1.80;0.70;;;;;;;25.31;44.06;101288.77;1921713;73;21062;-56
2021/06/03 17:41:16;;;;;;;1.70;0.60;;;;;;;25.33;44.04;101284.09;1901203;73;21403;-57
2021/06/03 17:43:44;;;;;;;1.62;0.70;;;;;;;25.34;43.99;101276.38;1907110;73;21022;-55
2021/06/03 17:46:13;;;;;;;2.72;0.62;;;;;;;25.37;44.12;101274.72;1930823;74;21097;-58
2021/06/03 17:48:41;;;;;;;2.55;0.70;;;;;;;25.37;44.07;101277.41;1917571;74;21062;-58
2021/06/03 17:51:09;;;;;;;0.93;0.53;;;;;;;25.39;44.05;101280.81;1915075;75;21186;-59
2021/06/03 17:53:38;;;;;;;2.47;0.70;;;;;;;25.40;44.02;101278.98;1915433;74;21042;-59
2021/06/03 17:56:06;;;;;;;1.95;0.65;;;;;;;25.41;44.09;101276.12;1915508;73;21061;-59
2021/06/03 17:58:34;;;;;;;0.95;0.50;;;;;;;25.42;43.91;101285.92;1909307;75;21132;-59
2021/06/03 18:01:03;;;;;;;1.70;0.75;;;;;;;25.42;43.72;101280.53;1914461;75;21070;-59
2021/06/03 18:03:32;;;;;;;0.98;0.75;;;;;;;25.45;43.62;101286.62;1915172;75;21061;-59
2021/06/03 18:06:00;;;;;;;3.05;0.70;;;;;;;25.45;43.55;101296.91;1915442;74;21038;-60
2021/06/03 18:08:30;;;;;;;1.47;0.53;;;;;;;25.45;43.53;101290.16;1915441;75;21120;-59
2021/06/03 18:10:58;;;;;;;3.17;0.80;;;;;;;25.46;43.40;101289.69;1914871;75;21651;-60
2021/06/03 18:13:27;;;;;;;4.05;0.80;;;;;;;25.46;43.36;101288.34;1935531;73;21219;-57
2021/06/03 18:15:55;;;;;;;4.05;0.93;;;;;;;25.46;43.40;101293.23;1930390;73;21118;-59
2021/06/03 18:18:23;;;;;;;1.22;0.53;;;;;;;25.48;43.31;101286.34;1941546;73;21110;-53
2021/06/03 18:20:52;;;;;;;1.50;0.70;;;;;;;25.47;43.21;101293.59;1926824;73;21052;-54
2021/06/03 18:23:21;;;;;;;2.35;0.88;;;;;;;25.47;43.15;101295.41;1938033;73;21184;-54
2021/06/03 18:25:49;;;;;;;2.83;0.80;;;;;;;25.46;43.12;101292.38;1937038;73;21130;-55
2021/06/03 18:28:18;;;;;;;1.15;0.80;;;;;;;25.43;43.05;101290.34;1932677;73;21070;-54
2021/06/03 18:30:46;;;;;;;3.08;0.70;;;;;;;25.42;43.00;101287.27;1940693;72;21066;-51
2021/06/03 18:33:14;;;;;;;3.22;0.70;;;;;;;25.40;43.19;101296.00;1945272;73;21136;-53
2021/06/03 18:35:43;;;;;;;3.25;0.93;;;;;;;25.38;43.06;101293.95;1935379;73;21083;-54
2021/06/03 18:38:11;;;;;;;2.62;0.90;;;;;;;25.35;42.98;101300.96;1922284;73;21106;-54
2021/06/03 18:40:40;;;;;;;2.80;0.72;;;;;;;25.32;42.88;101299.89;1914265;73;21192;-54
2021/06/03 18:43:09;;;;;;;1.82;0.93;;;;;;;25.28;42.85;101296.29;1941583;73;21074;-52
2021/06/03 18:45:38;;;;;;;3.90;0.85;;;;;;;25.24;42.91;101299.77;1934985;73;21117;-54
2021/06/03 18:48:08;;;;;;;1.12;0.80;;;;;;;25.21;42.89;101295.97;1929909;73;21074;-53
2021/06/03 18:50:41;;;;;;;1.72;0.60;;;;;;;25.17;42.84;101302.13;1924070;73;21079;-54
2021/06/03 18:53:14;;;;;;;3.70;0.88;;;;;;;25.14;42.89;101292.13;1940036;73;21062;-53
2021/06/03 18:55:41;;;;;;;;;;;;;;;25.11;42.91;101296.48;1915897;73;21099;-53
2021/06/03 18:58:10;;;;;;;1.82;0.70;;;;;;;25.09;43.07;101293.08;1928853;73;20103;-54
2021/06/03 19:00:40;;;;;;;1.60;0.80;;;;;;;25.05;43.02;101292.00;1925840;73;21250;-53
2021/06/03 19:03:10;;;;;;;1.45;0.60;;;;;;;25.03;42.99;101291.80;1911679;74;21079;-53
2021/06/03 19:05:39;;;;;;;2.05;0.70;;;;;;;25.01;43.04;101292.41;1939088;73;21187;-55
2021/06/03 19:08:08;;;;;;;2.15;0.85;;;;;;;24.98;43.03;101293.55;1924367;73;21141;-54
2021/06/03 19:10:44;;;;;;;1.30;0.80;;;;;;;24.96;43.13;101292.84;1924928;72;21074;-54
2021/06/03 19:13:13;;;;;;;1.92;0.80;;;;;;;24.95;43.14;101287.59;1932530;73;21158;-54
2021/06/03 19:15:42;;;;;;;1.75;0.72;;;;;;;24.93;43.25;101290.42;1932135;73;21079;-54
2021/06/03 19:18:11;;;;;;;2.10;0.70;;;;;;;24.91;43.24;101285.67;1924075;74;21063;-53
2021/06/03 19:20:42;;;;;;;2.00;0.88;;;;;;;24.89;43.25;101286.31;1887016;74;21063;-54
2021/06/03 19:23:11;;;;;;;3.30;1.02;;;;;;;24.87;43.29;101285.61;1887302;74;21409;-54
2021/06/03 19:25:41;;;;;;;2.58;0.80;;;;;;;24.85;43.37;101285.73;1906999;74;21027;-53
2021/06/03 19:28:10;;;;;;;1.15;0.80;;;;;;;24.85;43.41;101283.55;1918538;73;21171;-53
2021/06/03 19:30:39;;;;;;;2.62;0.90;;;;;;;24.83;43.44;101280.99;1912261;73;21043;-53
2021/06/03 19:33:07;;;;;;;1.62;0.80;;;;;;;24.82;43.51;101290.55;1939916;73;21104;-53
2021/06/03 19:35:36;;;;;;;2.47;0.80;;;;;;;24.81;43.52;101288.87;1942506;73;21140;-54
2021/06/03 19:38:06;;;;;;;1.77;1.00;;;;;;;24.80;43.55;101282.61;1921114;74;21653;-54
2021/06/03 19:40:37;;;;;;;1.65;0.95;;;;;;;24.78;43.56;101281.06;1929167;73;21258;-52
2021/06/03 19:43:05;;;;;;;1.55;1.00;;;;;;;24.76;43.56;101274.46;1916245;73;21083;-53
2021/06/03 19:45:33;;;;;;;2.60;0.85;;;;;;;24.74;43.62;101275.09;1935207;73;21596;-54
2021/06/03 19:48:02;;;;;;;1.30;0.90;;;;;;;24.73;43.65;101280.62;1940397;73;21066;-53
2021/06/03 19:50:33;;;;;;;1.35;0.70;;;;;;;24.71;43.71;101283.44;1925031;73;21220;-52
2021/06/03 19:53:01;;;;;;;2.55;0.70;;;;;;;24.71;43.66;101271.83;1911995;73;21043;-52
2021/06/03 19:55:31;;;;;;;1.37;0.80;;;;;;;24.69;43.67;101267.08;1936128;73;21154;-52
2021/06/03 19:58:00;;;;;;;2.27;0.70;;;;;;;24.66;43.66;101259.64;1941434;73;21205;-51
2021/06/03 20:00:32;;;;;;;1.95;0.90;;;;;;;24.65;43.69;101260.62;1936093;73;21079;-53
2021/06/03 20:03:02;;;;;;;1.82;0.88;;;;;;;24.62;43.72;101262.27;1931085;73;21184;-53
2021/06/03 20:05:30;;;;;;;0.80;0.80;;;;;;;24.62;43.72;101267.65;1931279;73;21222;-53
2021/06/03 20:07:59;;;;;;;4.10;1.27;;;;;;;24.58;43.65;101267.55;1942272;73;21074;-53
2021/06/03 20:10:27;;;;;;;2.05;0.93;;;;;;;24.57;43.62;101265.86;1929826;73;21075;-53
2021/06/03 20:12:55;;;;;;;1.27;0.70;;;;;;;24.55;43.66;101269.66;1950924;73;21159;-54
2021/06/03 20:15:24;;;;;;;2.20;0.90;;;;;;;24.53;43.68;101263.56;1933712;73;21191;-52
2021/06/03 20:17:52;;;;;;;2.15;0.80;;;;;;;24.52;43.69;101267.23;1950213;73;21058;-52
2021/06/03 20:20:22;;;;;;;4.25;0.90;;;;;;;24.50;43.70;101262.48;1945052;72;21142;-53
2021/06/03 20:22:51;;;;;;;2.52;1.00;;;;;;;24.47;43.71;101259.55;1944158;73;21046;-53
2021/06/03 20:25:22;;;;;;;4.10;0.80;;;;;;;24.44;43.68;101262.05;1921786;73;21070;-54
2021/06/03 20:27:53;;;;;;;1.00;0.75;;;;;;;24.42;43.68;101262.68;1918945;73;21090;-53
2021/06/03 20:30:23;;;;;;;1.65;0.90;;;;;;;24.41;43.72;101265.50;1920030;73;21191;-52
2021/06/03 20:32:52;;;;;;;3.37;0.90;;;;;;;24.40;43.73;101263.78;1926989;73;21133;-52
2021/06/03 20:35:21;;;;;;;1.10;0.80;;;;;;;24.37;43.74;101256.85;1912407;74;21067;-53
2021/06/03 20:37:50;;;;;;;0.78;0.78;;;;;;;24.36;43.74;101254.29;1938210;73;21066;-53
2021/06/03 20:40:22;;;;;;;3.20;0.80;;;;;;;24.34;43.77;101247.70;1938639;73;21220;-53
2021/06/03 20:42:51;;;;;;;1.70;1.10;;;;;;;24.32;43.79;101240.26;1912938;74;21518;-54
2021/06/03 20:45:22;;;;;;;1.30;0.90;;;;;;;24.31;43.75;101243.08;1923990;74;21091;-54
2021/06/03 20:47:52;;;;;;;1.65;0.93;;;;;;;24.28;43.73;101239.67;1920806;74;21101;-52
2021/06/03 20:50:25;;;;;;;1.30;0.90;;;;;;;24.27;43.72;101232.61;1920179;73;21074;-54
2021/06/03 20:52:54;;;;;;;2.60;0.90;;;;;;;24.26;43.74;101234.93;1945122;73;21125;-53
2021/06/03 20:55:23;;;;;;;1.67;1.00;;;;;;;24.24;43.74;101237.41;1945100;73;21144;-53
2021/06/03 20:57:52;;;;;;;1.10;0.80;;;;;;;24.23;43.79;101224.94;1942303;73;21058;-52
2021/06/03 21:00:22;;;;;;;0.78;0.70;;;;;;;24.21;43.81;101238.52;1944374;72;21144;-54
2021/06/03 21:02:52;;;;;;;1.35;0.80;;;;;;;24.21;43.81;101236.33;1944410;73;21048;-53
2021/06/03 21:05:23;;;;;;;2.55;0.90;;;;;;;24.19;43.83;101227.05;1939536;73;21047;-53
2021/06/03 21:08:00;;;;;;;0.72;0.70;;;;;;;24.18;43.88;101221.33;1943980;73;21144;-53
2021/06/03 21:10:31;;;;;;;2.40;1.00;;;;;;;24.18;43.92;101219.11;1912336;73;21094;-53
2021/06/03 21:13:00;;;;;;;0.80;0.70;;;;;;;24.15;43.93;101216.20;1927590;73;21066;-54
2021/06/03 21:15:28;;;;;;;1.12;0.80;;;;;;;24.14;43.95;101215.84;1942823;73;21047;-53
2021/06/03 21:17:57;;;;;;;0.98;0.80;;;;;;;24.14;43.96;101205.08;1923828;73;21062;-54
2021/06/03 21:20:25;;;;;;;1.17;0.70;;;;;;;24.11;43.99;101199.98;1940536;72;21074;-54
2021/06/03 21:22:55;;;;;;;1.55;0.85;;;;;;;24.11;44.03;101206.72;1936284;73;21075;-53
2021/06/03 21:25:25;;;;;;;2.58;0.90;;;;;;;24.10;44.04;101203.66;1941967;73;21047;-50
2021/06/03 21:27:54;;;;;;;1.25;0.90;;;;;;;24.09;44.06;101201.97;1925763;73;21150;-54
2021/06/03 21:30:24;;;;;;;1.77;1.00;;;;;;;24.08;44.09;101199.75;1921335;73;21179;-55
2021/06/03 21:32:53;;;;;;;2.05;0.88;;;;;;;24.07;44.14;101192.69;1938927;73;21036;-53
2021/06/03 21:35:22;;;;;;;2.37;0.90;;;;;;;24.06;44.16;101192.31;1941808;73;21043;-54
2021/06/03 21:37:50;;;;;;;2.05;0.80;;;;;;;24.06;44.17;101188.78;1944828;73;21062;-53
2021/06/03 21:40:19;;;;;;;2.65;1.00;;;;;;;24.05;44.21;101192.45;1928454;73;21055;-54
2021/06/03 21:42:49;;;;;;;1.25;0.82;;;;;;;24.05;44.24;101197.83;1935198;73;21174;-53
2021/06/03 21:45:20;;;;;;;1.22;0.80;;;;;;;24.04;44.25;101193.45;1912262;73;21180;-53
2021/06/03 21:47:49;;;;;;;2.15;0.80;;;;;;;24.03;44.28;101189.92;1926100;73;21250;-54
2021/06/03 21:50:18;;;;;;;1.57;0.90;;;;;;;24.02;44.32;101186.02;1940406;73;21157;-54
2021/06/03 21:52:48;;;;;;;1.67;0.85;;;;;;;24.02;44.34;101195.43;1934432;73;22521;-54
2021/06/03 21:55:18;;;;;;;1.42;0.90;;;;;;;24.01;44.36;101188.34;1912422;73;21058;-52
2021/06/03 21:57:48;;;;;;;2.83;0.88;;;;;;;24.00;44.39;101185.30;1924088;73;21133;-53
2021/06/03 22:00:22;;;;;;;3.75;1.07;;;;;;;23.99;44.38;101176.86;1929461;73;21082;-53
2021/06/03 22:02:52;;;;;;;1.67;0.80;;;;;;;23.97;44.40;101174.31;1912009;73;21063;-54
2021/06/03 22:05:21;;;;;;;1.37;0.85;;;;;;;23.96;44.41;101175.31;1940514;73;21121;-53
2021/06/03 22:07:49;;;;;;;2.72;1.02;;;;;;;23.97;44.45;101176.16;1929617;73;21062;-53
2021/06/03 22:10:18;;;;;;;1.35;0.80;;;;;;;23.95;44.47;101180.83;1931501;73;21185;-53
2021/06/03 22:12:46;;;;;;;0.75;0.70;;;;;;;23.95;44.47;101172.75;1919045;73;21082;-54
2021/06/03 22:15:15;;;;;;;1.67;0.70;;;;;;;23.93;44.48;101163.98;1928101;73;21070;-54
2021/06/03 22:17:45;;;;;;;3.50;0.80;;;;;;;23.93;44.49;101170.70;1946949;73;21066;-53
2021/06/03 22:20:19;;;;;;;4.35;0.82;;;;;;;23.92;44.48;101162.26;1940047;73;21066;-54
2021/06/03 22:22:48;;;;;;;1.25;0.80;;;;;;;23.91;44.50;101165.45;1935490;73;21078;-53
2021/06/03 22:25:18;;;;;;;1.45;0.78;;;;;;;23.90;44.50;101163.73;1941618;73;21066;-54
2021/06/03 22:27:48;;;;;;;2.17;0.90;;;;;;;23.88;44.53;101165.24;1925214;73;21153;-54
2021/06/03 22:30:17;;;;;;;1.20;0.72;;;;;;;23.88;44.54;101158.52;1937347;72;21192;-54
2021/06/03 22:32:46;;;;;;;1.82;0.78;;;;;;;23.87;44.57;101158.15;1940288;73;21070;-53
2021/06/03 22:35:16;;;;;;;1.50;0.72;;;;;;;23.86;44.59;101156.44;1935101;73;21086;-52
2021/06/03 22:37:46;;;;;;;1.15;0.80;;;;;;;23.86;44.59;101160.47;1933519;73;21697;-51
2021/06/03 22:40:17;;;;;;;2.85;1.20;;;;;;;23.85;44.58;101162.81;1940064;73;21063;-53
2021/06/03 22:42:48;;;;;;;0.75;0.75;;;;;;;23.85;44.56;101160.13;1941559;73;21074;-52
2021/06/03 22:45:25;;;;;;;2.00;0.80;;;;;;;23.83;44.55;101148.66;1934775;73;21102;-53
2021/06/03 22:47:46;;;;;;;2.92;1.00;;;;;;;23.83;44.57;101152.69;1941697;73;21130;-52
2021/06/03 22:50:15;;;;;;;1.00;0.80;;;;;;;23.82;44.61;101151.48;1936388;73;21078;-51
2021/06/03 22:52:44;;;;;;;2.30;0.80;;;;;;;23.81;44.59;101149.30;1933523;73;21062;-53
2021/06/03 22:55:13;;;;;;;1.72;0.88;;;;;;;23.81;44.60;101156.02;1932950;73;21040;-50
2021/06/03 22:57:41;;;;;;;1.50;0.80;;;;;;;23.79;44.60;101149.92;1944659;73;21027;-52
2021/06/03 23:00:12;;;;;;;1.57;0.95;;;;;;;23.78;44.59;101145.48;1940152;73;21136;-52
2021/06/03 23:02:41;;;;;;;2.12;0.72;;;;;;;23.79;44.59;101144.98;1945355;73;21157;-54
2021/06/03 23:05:12;;;;;;;0.80;0.70;;;;;;;23.77;44.62;101138.39;1935114;73;21653;-53
2021/06/03 23:07:40;;;;;;;2.08;0.80;;;;;;;23.77;44.62;101146.96;1947253;73;21077;-53
2021/06/03 23:10:11;;;;;;;1.40;0.82;;;;;;;23.76;44.63;101138.56;1916556;73;21075;-53
2021/06/03 23:12:40;;;;;;;1.05;0.60;;;;;;;23.75;44.68;101140.88;1939138;73;21180;-54
2021/06/03 23:15:09;;;;;;;0.95;0.85;;;;;;;23.75;44.67;101140.88;1918389;73;21059;-52
2021/06/03 23:17:37;;;;;;;1.95;0.70;;;;;;;23.74;44.68;101147.23;1934371;73;21242;-53
2021/06/03 23:20:08;;;;;;;1.20;0.80;;;;;;;23.73;44.70;101139.66;1917735;73;21507;-53
2021/06/03 23:22:36;;;;;;;1.52;0.98;;;;;;;23.73;44.71;101141.00;1934724;73;21118;-53
2021/06/03 23:25:06;;;;;;;2.72;1.00;;;;;;;23.73;44.73;101144.20;1942156;73;21044;-54
2021/06/03 23:27:35;;;;;;;2.90;0.82;;;;;;;23.72;44.77;101142.02;1931850;73;21036;-53
2021/06/03 23:30:06;;;;;;;1.85;0.88;;;;;;;23.71;44.75;101138.95;1927145;72;21242;-53
2021/06/03 23:32:34;;;;;;;2.22;0.85;;;;;;;23.71;44.80;101137.61;1948701;73;21750;-53
2021/06/03 23:35:03;;;;;;;1.70;0.85;;;;;;;23.70;44.81;101138.11;1918464;73;21082;-53
2021/06/03 23:37:31;;;;;;;0.72;0.70;;;;;;;23.70;44.83;101138.61;1942578;73;21066;-54
2021/06/03 23:39:59;;;;;;;1.60;0.80;;;;;;;23.70;44.88;101138.61;1924782;73;21059;-53
2021/06/03 23:42:28;;;;;;;1.42;0.80;;;;;;;23.69;44.90;101130.17;1927659;74;21044;-54
2021/06/03 23:44:56;;;;;;;1.50;0.80;;;;;;;23.69;44.94;101136.39;1936623;73;21167;-53
2021/06/03 23:47:25;;;;;;;2.80;1.10;;;;;;;23.68;44.95;101132.02;1924944;73;21052;-53
2021/06/03 23:49:53;;;;;;;2.20;0.90;;;;;;;23.68;44.98;101124.42;1940166;73;21074;-53
2021/06/03 23:52:21;;;;;;;1.35;0.80;;;;;;;23.67;44.99;101118.20;1941171;73;21603;-53
2021/06/03 23:54:49;;;;;;;2.12;0.85;;;;;;;23.67;45.03;101115.52;1949027;73;21135;-54
2021/06/03 23:57:18;;;;;;;0.90;0.70;;;;;;;23.67;45.04;101114.68;1928046;73;21252;-54
2021/06/03 23:59:47;;;;;;;1.02;0.88;;;;;;;23.67;45.03;101116.02;1918787;73;21165;-53
